Airfield :







YOU CAN JOIN US ON...

 
LOGIN :

Register | Disclaimer

   EN    FR    IT 

 









Legend :    VFR   Marginal VFR   IFR   Intensive IFR   Very Intensive IFR
Visi :
Ceiling :
>= 8 km
>= 3000ft
5 to 8 km
1000 to 3000 ft
1500m to 5 km
500 to 1000 ft
800 to 1500m
200 to 500 ft
< 800m
< 200 ft
Symbols :   Thunderstorms  Fog  Heavy snow  Heavy precipitations  Wind > 20 kt







- Airport Elevation : 133 ft
- IATA code : BED


KBED - Laurence G Hanscom Field

CURRENT METAR :
  • 221951Z 23008KT 10SM BKN250 31/14 A3001 RMK AO2 SLP171 T03110139

EXPIRED METARs :
  • 221851Z 21011G17KT 10SM BKN250 31/15 A3003 RMK AO2 SLP178 T03060150
  • 221751Z 21009KT 10SM SCT250 31/13 A3005 RMK AO2 SLP185 T03110133 10311 20167 58023

TAF KBED
Valid from the 22 at 18:00 until the 23 at 18:00 UTC


221734Z 2218/2318 23010G16KT P6SM BKN250
FM222300 21007KT P6SM SCT250
FM231300 23010G18KT P6SM FEW250
FM231500 23011G20KT P6SM SCT250
FM231700 22011G21KT P6SM SCT150 BKN250
No reported NOTAMs for that airfield.



MET'MAP, your aeronautical weather chart ! - Copyright ORBIFLY December 2007 - Disclaimer

ORBIFLY MET'MAP TEAM :

Programming & Development : Alexandra Zaïnal
Concept & Development : Baudouin d'Aumeries
Co-Development & Prog : Marc-Olivier Méhu
Technical & hardware support : Manuel Goepfert

Contact : metmap@orbifly.com




SOURCES & CREDITS :

   NOAA